sensor_id;sensor_type;location;lat;lon;timestamp;P1;durP1;ratioP1;P2;durP2;ratioP2
12623;SDS011;6377;42.836;23.998;2024-02-26T00:01:10;8.67;;;4.73;;
12623;SDS011;6377;42.836;23.998;2024-02-26T00:03:39;3.53;;;3.07;;
12623;SDS011;6377;42.836;23.998;2024-02-26T00:06:07;5.47;;;4.13;;
12623;SDS011;6377;42.836;23.998;2024-02-26T00:08:34;4.83;;;3.70;;
12623;SDS011;6377;42.836;23.998;2024-02-26T00:11:02;6.50;;;3.90;;
12623;SDS011;6377;42.836;23.998;2024-02-26T00:13:29;7.40;;;3.80;;
12623;SDS011;6377;42.836;23.998;2024-02-26T00:15:56;5.00;;;3.77;;
12623;SDS011;6377;42.836;23.998;2024-02-26T00:18:23;4.63;;;3.03;;
12623;SDS011;6377;42.836;23.998;2024-02-26T00:20:52;5.83;;;3.40;;
12623;SDS011;6377;42.836;23.998;2024-02-26T00:23:19;5.40;;;3.57;;
12623;SDS011;6377;42.836;23.998;2024-02-26T00:25:46;4.17;;;3.23;;
12623;SDS011;6377;42.836;23.998;2024-02-26T00:28:14;5.93;;;3.90;;
12623;SDS011;6377;42.836;23.998;2024-02-26T00:30:41;5.80;;;3.30;;
12623;SDS011;6377;42.836;23.998;2024-02-26T00:33:08;5.50;;;3.50;;
12623;SDS011;6377;42.836;23.998;2024-02-26T00:35:35;5.47;;;3.13;;
12623;SDS011;6377;42.836;23.998;2024-02-26T00:38:04;5.67;;;3.40;;
12623;SDS011;6377;42.836;23.998;2024-02-26T00:40:31;4.80;;;3.53;;
12623;SDS011;6377;42.836;23.998;2024-02-26T00:42:59;7.27;;;3.00;;
12623;SDS011;6377;42.836;23.998;2024-02-26T00:45:27;5.50;;;3.37;;
12623;SDS011;6377;42.836;23.998;2024-02-26T00:47:54;7.00;;;3.47;;
12623;SDS011;6377;42.836;23.998;2024-02-26T00:50:21;4.23;;;3.00;;
12623;SDS011;6377;42.836;23.998;2024-02-26T00:52:48;6.03;;;3.70;;
12623;SDS011;6377;42.836;23.998;2024-02-26T00:55:17;4.07;;;3.43;;
12623;SDS011;6377;42.836;23.998;2024-02-26T00:57:44;5.23;;;3.50;;
12623;SDS011;6377;42.836;23.998;2024-02-26T01:00:11;4.57;;;3.03;;
12623;SDS011;6377;42.836;23.998;2024-02-26T01:02:40;4.33;;;2.80;;
12623;SDS011;6377;42.836;23.998;2024-02-26T01:05:08;5.03;;;3.60;;
12623;SDS011;6377;42.836;23.998;2024-02-26T01:07:35;8.33;;;3.27;;
12623;SDS011;6377;42.836;23.998;2024-02-26T01:10:03;5.10;;;3.30;;
12623;SDS011;6377;42.836;23.998;2024-02-26T01:12:32;4.23;;;2.73;;
12623;SDS011;6377;42.836;23.998;2024-02-26T01:15:00;3.77;;;2.87;;
12623;SDS011;6377;42.836;23.998;2024-02-26T01:17:28;2.87;;;2.50;;
12623;SDS011;6377;42.836;23.998;2024-02-26T01:19:55;4.83;;;2.73;;
12623;SDS011;6377;42.836;23.998;2024-02-26T01:22:23;3.93;;;2.87;;
12623;SDS011;6377;42.836;23.998;2024-02-26T01:24:50;3.70;;;2.30;;
12623;SDS011;6377;42.836;23.998;2024-02-26T01:27:17;2.97;;;2.50;;
12623;SDS011;6377;42.836;23.998;2024-02-26T01:29:46;5.07;;;2.80;;
12623;SDS011;6377;42.836;23.998;2024-02-26T01:32:13;4.10;;;2.50;;
12623;SDS011;6377;42.836;23.998;2024-02-26T01:34:40;2.40;;;2.17;;
12623;SDS011;6377;42.836;23.998;2024-02-26T01:37:07;4.40;;;3.10;;
12623;SDS011;6377;42.836;23.998;2024-02-26T01:39:34;6.93;;;3.60;;
12623;SDS011;6377;42.836;23.998;2024-02-26T01:42:02;5.07;;;3.07;;
12623;SDS011;6377;42.836;23.998;2024-02-26T01:44:29;3.97;;;3.00;;
12623;SDS011;6377;42.836;23.998;2024-02-26T01:46:58;5.43;;;3.20;;
12623;SDS011;6377;42.836;23.998;2024-02-26T01:49:27;4.63;;;3.10;;
12623;SDS011;6377;42.836;23.998;2024-02-26T01:51:55;5.23;;;3.23;;
12623;SDS011;6377;42.836;23.998;2024-02-26T01:54:24;5.53;;;3.57;;
12623;SDS011;6377;42.836;23.998;2024-02-26T01:56:52;4.50;;;2.90;;
12623;SDS011;6377;42.836;23.998;2024-02-26T01:59:19;6.17;;;3.57;;
12623;SDS011;6377;42.836;23.998;2024-02-26T02:01:47;2.80;;;2.40;;
12623;SDS011;6377;42.836;23.998;2024-02-26T02:04:20;4.40;;;2.40;;
12623;SDS011;6377;42.836;23.998;2024-02-26T02:06:49;3.83;;;2.50;;
12623;SDS011;6377;42.836;23.998;2024-02-26T02:09:18;5.53;;;2.90;;
12623;SDS011;6377;42.836;23.998;2024-02-26T02:11:47;3.77;;;2.57;;
12623;SDS011;6377;42.836;23.998;2024-02-26T02:14:15;4.43;;;1.97;;
12623;SDS011;6377;42.836;23.998;2024-02-26T02:16:42;3.90;;;2.40;;
12623;SDS011;6377;42.836;23.998;2024-02-26T02:19:09;3.03;;;2.13;;
12623;SDS011;6377;42.836;23.998;2024-02-26T02:21:38;3.00;;;1.90;;
12623;SDS011;6377;42.836;23.998;2024-02-26T02:24:05;3.10;;;2.23;;
12623;SDS011;6377;42.836;23.998;2024-02-26T02:26:32;4.57;;;2.20;;
12623;SDS011;6377;42.836;23.998;2024-02-26T02:29:00;3.47;;;2.07;;
12623;SDS011;6377;42.836;23.998;2024-02-26T02:31:27;4.90;;;2.20;;
12623;SDS011;6377;42.836;23.998;2024-02-26T02:33:55;4.97;;;2.00;;
12623;SDS011;6377;42.836;23.998;2024-02-26T02:36:22;3.17;;;1.70;;
12623;SDS011;6377;42.836;23.998;2024-02-26T02:38:51;3.30;;;1.60;;
12623;SDS011;6377;42.836;23.998;2024-02-26T02:41:18;3.50;;;1.57;;
12623;SDS011;6377;42.836;23.998;2024-02-26T02:43:46;2.63;;;1.77;;
12623;SDS011;6377;42.836;23.998;2024-02-26T02:46:13;4.83;;;2.10;;
12623;SDS011;6377;42.836;23.998;2024-02-26T02:48:41;7.87;;;1.80;;
12623;SDS011;6377;42.836;23.998;2024-02-26T02:51:09;2.27;;;1.50;;
12623;SDS011;6377;42.836;23.998;2024-02-26T02:53:36;4.50;;;1.57;;
12623;SDS011;6377;42.836;23.998;2024-02-26T02:56:05;1.80;;;1.50;;
12623;SDS011;6377;42.836;23.998;2024-02-26T02:58:32;2.90;;;1.70;;
12623;SDS011;6377;42.836;23.998;2024-02-26T03:00:59;1.67;;;1.40;;
12623;SDS011;6377;42.836;23.998;2024-02-26T03:03:27;2.43;;;1.50;;
12623;SDS011;6377;42.836;23.998;2024-02-26T03:05:54;4.50;;;1.73;;
12623;SDS011;6377;42.836;23.998;2024-02-26T03:08:22;2.30;;;1.57;;
12623;SDS011;6377;42.836;23.998;2024-02-26T03:10:51;4.67;;;1.27;;
12623;SDS011;6377;42.836;23.998;2024-02-26T03:13:19;2.53;;;1.40;;
12623;SDS011;6377;42.836;23.998;2024-02-26T03:15:47;3.60;;;1.63;;
12623;SDS011;6377;42.836;23.998;2024-02-26T03:18:14;3.73;;;2.03;;
12623;SDS011;6377;42.836;23.998;2024-02-26T03:20:42;3.13;;;1.50;;
12623;SDS011;6377;42.836;23.998;2024-02-26T03:23:09;2.90;;;1.63;;
12623;SDS011;6377;42.836;23.998;2024-02-26T03:25:38;1.83;;;1.50;;
12623;SDS011;6377;42.836;23.998;2024-02-26T03:28:05;3.10;;;1.90;;
12623;SDS011;6377;42.836;23.998;2024-02-26T03:30:34;2.90;;;1.50;;
12623;SDS011;6377;42.836;23.998;2024-02-26T03:33:01;2.40;;;1.30;;
12623;SDS011;6377;42.836;23.998;2024-02-26T03:35:28;3.43;;;1.70;;
12623;SDS011;6377;42.836;23.998;2024-02-26T03:37:55;2.00;;;1.70;;
12623;SDS011;6377;42.836;23.998;2024-02-26T03:40:23;3.03;;;1.40;;
12623;SDS011;6377;42.836;23.998;2024-02-26T03:42:50;2.67;;;1.60;;
12623;SDS011;6377;42.836;23.998;2024-02-26T03:45:19;1.93;;;1.33;;
12623;SDS011;6377;42.836;23.998;2024-02-26T03:47:47;3.17;;;1.30;;
12623;SDS011;6377;42.836;23.998;2024-02-26T03:50:15;2.07;;;1.53;;
12623;SDS011;6377;42.836;23.998;2024-02-26T03:52:42;1.60;;;1.40;;
12623;SDS011;6377;42.836;23.998;2024-02-26T03:55:09;2.27;;;1.70;;
12623;SDS011;6377;42.836;23.998;2024-02-26T03:57:36;4.43;;;1.50;;
12623;SDS011;6377;42.836;23.998;2024-02-26T04:00:04;2.10;;;1.47;;
12623;SDS011;6377;42.836;23.998;2024-02-26T04:02:32;5.03;;;1.53;;
12623;SDS011;6377;42.836;23.998;2024-02-26T04:05:00;1.80;;;1.37;;
12623;SDS011;6377;42.836;23.998;2024-02-26T04:07:28;4.90;;;2.20;;
12623;SDS011;6377;42.836;23.998;2024-02-26T04:09:55;4.07;;;2.50;;
12623;SDS011;6377;42.836;23.998;2024-02-26T04:12:22;2.10;;;1.60;;
12623;SDS011;6377;42.836;23.998;2024-02-26T04:14:50;3.10;;;1.60;;
12623;SDS011;6377;42.836;23.998;2024-02-26T04:17:17;2.93;;;1.70;;
12623;SDS011;6377;42.836;23.998;2024-02-26T04:19:44;2.00;;;1.70;;
12623;SDS011;6377;42.836;23.998;2024-02-26T04:22:12;2.83;;;1.60;;
12623;SDS011;6377;42.836;23.998;2024-02-26T04:24:40;8.63;;;3.90;;
12623;SDS011;6377;42.836;23.998;2024-02-26T04:27:07;4.87;;;3.13;;
12623;SDS011;6377;42.836;23.998;2024-02-26T04:29:34;4.00;;;2.13;;
12623;SDS011;6377;42.836;23.998;2024-02-26T04:32:01;5.30;;;3.20;;
12623;SDS011;6377;42.836;23.998;2024-02-26T04:34:29;4.13;;;2.60;;
12623;SDS011;6377;42.836;23.998;2024-02-26T04:36:56;3.83;;;2.80;;
12623;SDS011;6377;42.836;23.998;2024-02-26T04:39:25;2.90;;;1.90;;
12623;SDS011;6377;42.836;23.998;2024-02-26T04:41:52;4.97;;;2.97;;
12623;SDS011;6377;42.836;23.998;2024-02-26T04:44:19;3.47;;;2.17;;
12623;SDS011;6377;42.836;23.998;2024-02-26T04:46:46;2.80;;;1.77;;
12623;SDS011;6377;42.836;23.998;2024-02-26T04:49:13;5.43;;;3.83;;
12623;SDS011;6377;42.836;23.998;2024-02-26T04:51:40;4.13;;;2.60;;
12623;SDS011;6377;42.836;23.998;2024-02-26T04:54:07;4.67;;;2.00;;
12623;SDS011;6377;42.836;23.998;2024-02-26T04:56:35;3.27;;;1.80;;
12623;SDS011;6377;42.836;23.998;2024-02-26T04:59:02;2.93;;;1.33;;
12623;SDS011;6377;42.836;23.998;2024-02-26T05:01:29;3.00;;;1.47;;
12623;SDS011;6377;42.836;23.998;2024-02-26T05:03:56;3.60;;;2.30;;
12623;SDS011;6377;42.836;23.998;2024-02-26T05:06:23;2.97;;;2.23;;
12623;SDS011;6377;42.836;23.998;2024-02-26T05:08:50;3.20;;;2.10;;
12623;SDS011;6377;42.836;23.998;2024-02-26T05:11:17;3.67;;;2.20;;
12623;SDS011;6377;42.836;23.998;2024-02-26T05:13:47;5.90;;;2.30;;
12623;SDS011;6377;42.836;23.998;2024-02-26T05:16:14;13.77;;;8.80;;
12623;SDS011;6377;42.836;23.998;2024-02-26T05:18:41;6.97;;;4.23;;
12623;SDS011;6377;42.836;23.998;2024-02-26T05:21:08;4.33;;;2.90;;
12623;SDS011;6377;42.836;23.998;2024-02-26T05:23:35;7.47;;;4.20;;
12623;SDS011;6377;42.836;23.998;2024-02-26T05:26:02;6.03;;;3.27;;
12623;SDS011;6377;42.836;23.998;2024-02-26T05:28:29;9.20;;;5.37;;
12623;SDS011;6377;42.836;23.998;2024-02-26T05:30:58;9.17;;;5.13;;
12623;SDS011;6377;42.836;23.998;2024-02-26T05:33:25;3.37;;;2.10;;
12623;SDS011;6377;42.836;23.998;2024-02-26T05:35:52;3.33;;;2.40;;
12623;SDS011;6377;42.836;23.998;2024-02-26T05:38:19;2.40;;;1.60;;
12623;SDS011;6377;42.836;23.998;2024-02-26T05:40:46;7.67;;;4.37;;
12623;SDS011;6377;42.836;23.998;2024-02-26T05:43:13;5.53;;;3.10;;
12623;SDS011;6377;42.836;23.998;2024-02-26T05:45:42;2.47;;;2.27;;
12623;SDS011;6377;42.836;23.998;2024-02-26T05:48:10;6.40;;;2.90;;
12623;SDS011;6377;42.836;23.998;2024-02-26T05:50:37;5.77;;;2.80;;
12623;SDS011;6377;42.836;23.998;2024-02-26T05:53:04;4.30;;;3.50;;
12623;SDS011;6377;42.836;23.998;2024-02-26T05:55:31;5.93;;;4.13;;
12623;SDS011;6377;42.836;23.998;2024-02-26T05:57:58;6.80;;;4.20;;
12623;SDS011;6377;42.836;23.998;2024-02-26T06:00:26;9.70;;;4.67;;
12623;SDS011;6377;42.836;23.998;2024-02-26T06:02:53;8.40;;;4.90;;
12623;SDS011;6377;42.836;23.998;2024-02-26T06:05:21;5.20;;;4.10;;
12623;SDS011;6377;42.836;23.998;2024-02-26T06:07:48;3.43;;;2.60;;
12623;SDS011;6377;42.836;23.998;2024-02-26T06:10:15;6.23;;;3.90;;
12623;SDS011;6377;42.836;23.998;2024-02-26T06:12:46;5.33;;;3.03;;
12623;SDS011;6377;42.836;23.998;2024-02-26T06:15:13;3.23;;;2.83;;
12623;SDS011;6377;42.836;23.998;2024-02-26T06:17:40;8.13;;;3.23;;
12623;SDS011;6377;42.836;23.998;2024-02-26T06:20:07;7.13;;;4.47;;
12623;SDS011;6377;42.836;23.998;2024-02-26T06:22:40;5.67;;;2.33;;
12623;SDS011;6377;42.836;23.998;2024-02-26T06:25:07;3.07;;;2.43;;
12623;SDS011;6377;42.836;23.998;2024-02-26T06:27:34;3.50;;;2.40;;
12623;SDS011;6377;42.836;23.998;2024-02-26T06:30:02;8.33;;;4.80;;
12623;SDS011;6377;42.836;23.998;2024-02-26T06:32:29;4.80;;;3.17;;
12623;SDS011;6377;42.836;23.998;2024-02-26T06:34:56;9.67;;;7.10;;
12623;SDS011;6377;42.836;23.998;2024-02-26T06:37:23;4.47;;;2.97;;
12623;SDS011;6377;42.836;23.998;2024-02-26T06:39:52;4.40;;;3.17;;
12623;SDS011;6377;42.836;23.998;2024-02-26T06:42:19;5.00;;;3.27;;
12623;SDS011;6377;42.836;23.998;2024-02-26T06:44:46;5.73;;;3.40;;
12623;SDS011;6377;42.836;23.998;2024-02-26T06:47:13;7.67;;;5.93;;
12623;SDS011;6377;42.836;23.998;2024-02-26T06:49:39;7.80;;;5.07;;
12623;SDS011;6377;42.836;23.998;2024-02-26T06:52:06;7.03;;;4.43;;
12623;SDS011;6377;42.836;23.998;2024-02-26T06:54:33;6.10;;;3.93;;
12623;SDS011;6377;42.836;23.998;2024-02-26T06:57:02;5.50;;;3.70;;
12623;SDS011;6377;42.836;23.998;2024-02-26T06:59:29;3.40;;;3.10;;
12623;SDS011;6377;42.836;23.998;2024-02-26T07:01:57;6.97;;;5.77;;
12623;SDS011;6377;42.836;23.998;2024-02-26T07:04:23;9.83;;;4.03;;
12623;SDS011;6377;42.836;23.998;2024-02-26T07:06:50;13.73;;;5.20;;
12623;SDS011;6377;42.836;23.998;2024-02-26T07:09:17;13.33;;;7.07;;
12623;SDS011;6377;42.836;23.998;2024-02-26T07:11:44;42.70;;;21.73;;
12623;SDS011;6377;42.836;23.998;2024-02-26T07:14:13;20.23;;;11.87;;
12623;SDS011;6377;42.836;23.998;2024-02-26T07:16:40;15.13;;;9.63;;
12623;SDS011;6377;42.836;23.998;2024-02-26T07:19:07;28.40;;;16.03;;
12623;SDS011;6377;42.836;23.998;2024-02-26T07:21:34;21.13;;;13.27;;
12623;SDS011;6377;42.836;23.998;2024-02-26T07:24:02;17.50;;;13.50;;
12623;SDS011;6377;42.836;23.998;2024-02-26T07:26:29;28.37;;;16.50;;
12623;SDS011;6377;42.836;23.998;2024-02-26T07:28:56;16.73;;;11.93;;
12623;SDS011;6377;42.836;23.998;2024-02-26T07:31:25;18.47;;;11.80;;
12623;SDS011;6377;42.836;23.998;2024-02-26T07:33:52;17.83;;;12.17;;
12623;SDS011;6377;42.836;23.998;2024-02-26T07:36:19;9.20;;;4.67;;
12623;SDS011;6377;42.836;23.998;2024-02-26T07:38:46;8.63;;;4.77;;
12623;SDS011;6377;42.836;23.998;2024-02-26T07:41:13;20.00;;;14.50;;
12623;SDS011;6377;42.836;23.998;2024-02-26T07:43:40;13.03;;;6.07;;
12623;SDS011;6377;42.836;23.998;2024-02-26T07:46:07;7.17;;;4.50;;
12623;SDS011;6377;42.836;23.998;2024-02-26T07:48:39;15.53;;;9.37;;
12623;SDS011;6377;42.836;23.998;2024-02-26T07:51:06;7.07;;;4.40;;
12623;SDS011;6377;42.836;23.998;2024-02-26T07:53:33;8.37;;;4.93;;
12623;SDS011;6377;42.836;23.998;2024-02-26T07:56:00;9.17;;;6.00;;
12623;SDS011;6377;42.836;23.998;2024-02-26T07:58:28;9.63;;;5.20;;
12623;SDS011;6377;42.836;23.998;2024-02-26T08:00:55;9.67;;;5.33;;
12623;SDS011;6377;42.836;23.998;2024-02-26T08:03:22;17.37;;;11.20;;
12623;SDS011;6377;42.836;23.998;2024-02-26T08:05:51;15.60;;;9.47;;
12623;SDS011;6377;42.836;23.998;2024-02-26T08:08:18;9.57;;;6.10;;
12623;SDS011;6377;42.836;23.998;2024-02-26T08:10:45;9.43;;;6.20;;
12623;SDS011;6377;42.836;23.998;2024-02-26T08:13:12;10.17;;;5.90;;
12623;SDS011;6377;42.836;23.998;2024-02-26T08:15:39;8.77;;;4.93;;
12623;SDS011;6377;42.836;23.998;2024-02-26T08:18:07;7.90;;;5.27;;
12623;SDS011;6377;42.836;23.998;2024-02-26T08:20:34;13.03;;;6.13;;
12623;SDS011;6377;42.836;23.998;2024-02-26T08:23:02;10.67;;;6.90;;
12623;SDS011;6377;42.836;23.998;2024-02-26T08:25:30;27.63;;;18.07;;
12623;SDS011;6377;42.836;23.998;2024-02-26T08:27:57;13.47;;;8.20;;
12623;SDS011;6377;42.836;23.998;2024-02-26T08:30:25;8.27;;;5.07;;
12623;SDS011;6377;42.836;23.998;2024-02-26T08:32:52;10.13;;;7.20;;
12623;SDS011;6377;42.836;23.998;2024-02-26T08:35:19;9.70;;;4.80;;
12623;SDS011;6377;42.836;23.998;2024-02-26T08:37:46;8.77;;;4.70;;
12623;SDS011;6377;42.836;23.998;2024-02-26T08:40:15;5.47;;;4.00;;
12623;SDS011;6377;42.836;23.998;2024-02-26T08:42:44;9.00;;;5.70;;
12623;SDS011;6377;42.836;23.998;2024-02-26T08:45:12;13.90;;;6.10;;
12623;SDS011;6377;42.836;23.998;2024-02-26T08:47:39;17.10;;;8.10;;
12623;SDS011;6377;42.836;23.998;2024-02-26T08:50:06;44.87;;;16.70;;
12623;SDS011;6377;42.836;23.998;2024-02-26T08:52:34;10.17;;;5.80;;
12623;SDS011;6377;42.836;23.998;2024-02-26T08:55:02;7.70;;;3.80;;
12623;SDS011;6377;42.836;23.998;2024-02-26T08:57:31;8.50;;;5.83;;
12623;SDS011;6377;42.836;23.998;2024-02-26T08:59:59;9.60;;;6.10;;
12623;SDS011;6377;42.836;23.998;2024-02-26T09:02:26;8.83;;;4.50;;
12623;SDS011;6377;42.836;23.998;2024-02-26T09:04:53;6.87;;;4.80;;
12623;SDS011;6377;42.836;23.998;2024-02-26T09:07:20;12.60;;;6.63;;
12623;SDS011;6377;42.836;23.998;2024-02-26T09:09:48;6.50;;;4.40;;
12623;SDS011;6377;42.836;23.998;2024-02-26T09:12:15;6.40;;;4.80;;
12623;SDS011;6377;42.836;23.998;2024-02-26T09:14:43;8.25;;;4.10;;
12623;SDS011;6377;42.836;23.998;2024-02-26T09:17:10;10.70;;;5.43;;
12623;SDS011;6377;42.836;23.998;2024-02-26T09:19:37;16.53;;;8.30;;
12623;SDS011;6377;42.836;23.998;2024-02-26T09:22:05;4.87;;;3.97;;
12623;SDS011;6377;42.836;23.998;2024-02-26T09:24:32;12.00;;;7.40;;
12623;SDS011;6377;42.836;23.998;2024-02-26T09:27:00;6.63;;;5.43;;
12623;SDS011;6377;42.836;23.998;2024-02-26T09:29:27;6.23;;;3.93;;
12623;SDS011;6377;42.836;23.998;2024-02-26T09:31:56;8.37;;;4.97;;
12623;SDS011;6377;42.836;23.998;2024-02-26T09:34:24;14.70;;;10.73;;
12623;SDS011;6377;42.836;23.998;2024-02-26T09:36:51;6.43;;;4.23;;
12623;SDS011;6377;42.836;23.998;2024-02-26T09:39:18;6.60;;;4.10;;
12623;SDS011;6377;42.836;23.998;2024-02-26T09:41:47;5.63;;;3.27;;
12623;SDS011;6377;42.836;23.998;2024-02-26T09:44:15;10.05;;;5.97;;
12623;SDS011;6377;42.836;23.998;2024-02-26T09:46:46;9.43;;;6.07;;
12623;SDS011;6377;42.836;23.998;2024-02-26T09:49:16;16.60;;;12.13;;
12623;SDS011;6377;42.836;23.998;2024-02-26T09:51:46;4.57;;;3.20;;
12623;SDS011;6377;42.836;23.998;2024-02-26T09:54:15;4.57;;;3.77;;
12623;SDS011;6377;42.836;23.998;2024-02-26T09:56:44;4.63;;;3.53;;
12623;SDS011;6377;42.836;23.998;2024-02-26T09:59:16;6.17;;;4.10;;
12623;SDS011;6377;42.836;23.998;2024-02-26T10:01:44;5.33;;;3.33;;
12623;SDS011;6377;42.836;23.998;2024-02-26T10:04:16;6.53;;;5.07;;
12623;SDS011;6377;42.836;23.998;2024-02-26T10:06:43;5.97;;;5.07;;
12623;SDS011;6377;42.836;23.998;2024-02-26T10:09:11;7.83;;;4.10;;
12623;SDS011;6377;42.836;23.998;2024-02-26T10:11:41;6.75;;;5.00;;
12623;SDS011;6377;42.836;23.998;2024-02-26T10:14:08;5.28;;;3.75;;
12623;SDS011;6377;42.836;23.998;2024-02-26T10:16:37;5.15;;;4.15;;
12623;SDS011;6377;42.836;23.998;2024-02-26T10:19:07;5.93;;;4.82;;
12623;SDS011;6377;42.836;23.998;2024-02-26T10:21:36;6.43;;;4.10;;
12623;SDS011;6377;42.836;23.998;2024-02-26T10:24:03;6.78;;;3.80;;
12623;SDS011;6377;42.836;23.998;2024-02-26T10:26:45;5.90;;;3.70;;
12623;SDS011;6377;42.836;23.998;2024-02-26T10:29:12;13.20;;;9.83;;
12623;SDS011;6377;42.836;23.998;2024-02-26T10:31:41;8.18;;;5.05;;
12623;SDS011;6377;42.836;23.998;2024-02-26T10:34:12;6.33;;;4.37;;
12623;SDS011;6377;42.836;23.998;2024-02-26T10:36:42;31.55;;;20.60;;
12623;SDS011;6377;42.836;23.998;2024-02-26T10:39:11;15.70;;;8.27;;
12623;SDS011;6377;42.836;23.998;2024-02-26T10:41:40;17.57;;;13.73;;
12623;SDS011;6377;42.836;23.998;2024-02-26T10:44:08;4.78;;;3.75;;
12623;SDS011;6377;42.836;23.998;2024-02-26T10:46:37;14.30;;;6.03;;
12623;SDS011;6377;42.836;23.998;2024-02-26T10:49:05;6.07;;;4.03;;
12623;SDS011;6377;42.836;23.998;2024-02-26T10:51:33;4.38;;;3.08;;
12623;SDS011;6377;42.836;23.998;2024-02-26T10:54:06;6.20;;;3.17;;
12623;SDS011;6377;42.836;23.998;2024-02-26T10:56:35;4.13;;;2.97;;
12623;SDS011;6377;42.836;23.998;2024-02-26T10:59:07;5.63;;;3.80;;
12623;SDS011;6377;42.836;23.998;2024-02-26T11:01:36;6.07;;;2.70;;
12623;SDS011;6377;42.836;23.998;2024-02-26T11:04:03;3.70;;;3.10;;
12623;SDS011;6377;42.836;23.998;2024-02-26T11:23:01;26.17;;;9.52;;
12623;SDS011;6377;42.836;23.998;2024-02-26T11:25:28;7.20;;;3.15;;
12623;SDS011;6377;42.836;23.998;2024-02-26T11:27:56;4.22;;;3.10;;
12623;SDS011;6377;42.836;23.998;2024-02-26T11:30:29;7.47;;;4.05;;
12623;SDS011;6377;42.836;23.998;2024-02-26T11:32:59;4.13;;;2.50;;
12623;SDS011;6377;42.836;23.998;2024-02-26T11:35:28;7.10;;;3.72;;
12623;SDS011;6377;42.836;23.998;2024-02-26T11:37:56;9.93;;;4.43;;
12623;SDS011;6377;42.836;23.998;2024-02-26T11:40:27;7.65;;;2.90;;
12623;SDS011;6377;42.836;23.998;2024-02-26T11:42:55;3.53;;;3.20;;
12623;SDS011;6377;42.836;23.998;2024-02-26T11:48:20;2.75;;;2.15;;
12623;SDS011;6377;42.836;23.998;2024-02-26T11:50:49;4.00;;;3.47;;
12623;SDS011;6377;42.836;23.998;2024-02-26T11:53:21;3.90;;;2.78;;
12623;SDS011;6377;42.836;23.998;2024-02-26T11:58:59;5.45;;;2.90;;
12623;SDS011;6377;42.836;23.998;2024-02-26T12:01:43;7.28;;;3.75;;
12623;SDS011;6377;42.836;23.998;2024-02-26T12:04:13;4.40;;;2.30;;
12623;SDS011;6377;42.836;23.998;2024-02-26T12:06:43;4.75;;;2.70;;
12623;SDS011;6377;42.836;23.998;2024-02-26T12:09:12;2.60;;;2.38;;
12623;SDS011;6377;42.836;23.998;2024-02-26T12:11:40;4.10;;;2.67;;
12623;SDS011;6377;42.836;23.998;2024-02-26T12:14:10;6.78;;;2.97;;
12623;SDS011;6377;42.836;23.998;2024-02-26T12:16:37;5.78;;;2.60;;
12623;SDS011;6377;42.836;23.998;2024-02-26T12:19:05;4.63;;;2.88;;
12623;SDS011;6377;42.836;23.998;2024-02-26T12:21:34;7.70;;;3.80;;
12623;SDS011;6377;42.836;23.998;2024-02-26T12:24:12;8.85;;;4.95;;
12623;SDS011;6377;42.836;23.998;2024-02-26T12:26:41;14.20;;;6.82;;
12623;SDS011;6377;42.836;23.998;2024-02-26T12:29:09;15.20;;;8.43;;
12623;SDS011;6377;42.836;23.998;2024-02-26T12:31:37;8.17;;;4.63;;
12623;SDS011;6377;42.836;23.998;2024-02-26T12:34:06;9.38;;;5.05;;
12623;SDS011;6377;42.836;23.998;2024-02-26T12:36:34;13.05;;;5.85;;
12623;SDS011;6377;42.836;23.998;2024-02-26T12:39:03;29.77;;;16.88;;
12623;SDS011;6377;42.836;23.998;2024-02-26T12:41:32;8.07;;;4.38;;
12623;SDS011;6377;42.836;23.998;2024-02-26T12:43:59;8.95;;;5.60;;
12623;SDS011;6377;42.836;23.998;2024-02-26T12:46:28;16.10;;;9.82;;
12623;SDS011;6377;42.836;23.998;2024-02-26T12:48:56;8.85;;;5.25;;
12623;SDS011;6377;42.836;23.998;2024-02-26T12:51:24;10.90;;;5.63;;
12623;SDS011;6377;42.836;23.998;2024-02-26T12:53:52;7.20;;;5.43;;
12623;SDS011;6377;42.836;23.998;2024-02-26T12:56:20;4.95;;;3.13;;
12623;SDS011;6377;42.836;23.998;2024-02-26T12:58:48;7.70;;;4.00;;
12623;SDS011;6377;42.836;23.998;2024-02-26T13:01:19;9.90;;;6.68;;
12623;SDS011;6377;42.836;23.998;2024-02-26T13:03:51;6.43;;;3.33;;
12623;SDS011;6377;42.836;23.998;2024-02-26T13:06:20;4.82;;;2.67;;
12623;SDS011;6377;42.836;23.998;2024-02-26T13:08:48;6.95;;;3.60;;
12623;SDS011;6377;42.836;23.998;2024-02-26T13:11:15;4.25;;;3.40;;
12623;SDS011;6377;42.836;23.998;2024-02-26T13:13:47;6.15;;;4.43;;
12623;SDS011;6377;42.836;23.998;2024-02-26T13:16:14;7.47;;;4.80;;
12623;SDS011;6377;42.836;23.998;2024-02-26T13:18:42;5.82;;;3.80;;
12623;SDS011;6377;42.836;23.998;2024-02-26T13:21:11;6.10;;;3.88;;
12623;SDS011;6377;42.836;23.998;2024-02-26T13:23:40;7.97;;;3.87;;
12623;SDS011;6377;42.836;23.998;2024-02-26T13:26:11;8.90;;;5.15;;
12623;SDS011;6377;42.836;23.998;2024-02-26T13:28:40;7.20;;;5.38;;
12623;SDS011;6377;42.836;23.998;2024-02-26T13:31:07;8.77;;;5.13;;
12623;SDS011;6377;42.836;23.998;2024-02-26T13:33:35;8.52;;;3.80;;
12623;SDS011;6377;42.836;23.998;2024-02-26T13:36:02;10.48;;;5.53;;
12623;SDS011;6377;42.836;23.998;2024-02-26T13:38:31;7.82;;;4.55;;
12623;SDS011;6377;42.836;23.998;2024-02-26T13:40:59;9.30;;;7.00;;
12623;SDS011;6377;42.836;23.998;2024-02-26T13:43:26;6.93;;;3.85;;
12623;SDS011;6377;42.836;23.998;2024-02-26T13:45:53;10.23;;;7.72;;
12623;SDS011;6377;42.836;23.998;2024-02-26T13:48:21;7.63;;;3.90;;
12623;SDS011;6377;42.836;23.998;2024-02-26T13:50:49;14.38;;;10.90;;
12623;SDS011;6377;42.836;23.998;2024-02-26T13:53:16;6.88;;;5.63;;
12623;SDS011;6377;42.836;23.998;2024-02-26T13:55:45;19.00;;;6.35;;
12623;SDS011;6377;42.836;23.998;2024-02-26T13:58:12;15.52;;;11.80;;
12623;SDS011;6377;42.836;23.998;2024-02-26T14:00:40;8.40;;;3.75;;
12623;SDS011;6377;42.836;23.998;2024-02-26T14:03:08;9.18;;;4.30;;
12623;SDS011;6377;42.836;23.998;2024-02-26T14:05:35;11.60;;;6.50;;
12623;SDS011;6377;42.836;23.998;2024-02-26T14:08:02;6.10;;;4.63;;
12623;SDS011;6377;42.836;23.998;2024-02-26T14:10:29;5.55;;;4.35;;
12623;SDS011;6377;42.836;23.998;2024-02-26T14:12:58;9.07;;;5.30;;
12623;SDS011;6377;42.836;23.998;2024-02-26T14:15:26;14.07;;;10.35;;
12623;SDS011;6377;42.836;23.998;2024-02-26T14:17:54;5.57;;;4.23;;
12623;SDS011;6377;42.836;23.998;2024-02-26T14:20:22;6.60;;;4.72;;
12623;SDS011;6377;42.836;23.998;2024-02-26T14:22:50;11.83;;;5.03;;
12623;SDS011;6377;42.836;23.998;2024-02-26T14:25:18;10.70;;;6.07;;
12623;SDS011;6377;42.836;23.998;2024-02-26T14:27:47;8.23;;;5.40;;
12623;SDS011;6377;42.836;23.998;2024-02-26T14:30:15;8.48;;;4.05;;
12623;SDS011;6377;42.836;23.998;2024-02-26T14:32:43;5.93;;;4.20;;
12623;SDS011;6377;42.836;23.998;2024-02-26T14:35:10;9.20;;;6.32;;
12623;SDS011;6377;42.836;23.998;2024-02-26T14:37:37;10.27;;;6.07;;
12623;SDS011;6377;42.836;23.998;2024-02-26T14:40:05;11.02;;;6.10;;
12623;SDS011;6377;42.836;23.998;2024-02-26T14:42:33;5.22;;;3.25;;
12623;SDS011;6377;42.836;23.998;2024-02-26T14:45:00;5.67;;;4.33;;
12623;SDS011;6377;42.836;23.998;2024-02-26T14:47:29;9.37;;;5.63;;
12623;SDS011;6377;42.836;23.998;2024-02-26T14:49:56;242.47;;;23.30;;
12623;SDS011;6377;42.836;23.998;2024-02-26T14:52:23;9.33;;;7.67;;
12623;SDS011;6377;42.836;23.998;2024-02-26T14:54:50;13.10;;;9.00;;
12623;SDS011;6377;42.836;23.998;2024-02-26T14:57:18;14.55;;;12.00;;
12623;SDS011;6377;42.836;23.998;2024-02-26T14:59:45;14.27;;;12.27;;
12623;SDS011;6377;42.836;23.998;2024-02-26T15:02:13;14.80;;;11.10;;
12623;SDS011;6377;42.836;23.998;2024-02-26T15:04:41;14.97;;;9.63;;
12623;SDS011;6377;42.836;23.998;2024-02-26T15:07:09;76.40;;;53.30;;
12623;SDS011;6377;42.836;23.998;2024-02-26T15:09:36;48.80;;;36.47;;